createdAt,value
2023-04-07T00:02:17.629Z,59.02
2023-04-07T00:04:46.210Z,59.08
2023-04-07T00:07:14.400Z,58.90
2023-04-07T00:09:43.720Z,58.87
2023-04-07T00:12:13.685Z,58.96
2023-04-07T00:14:41.952Z,59.09
2023-04-07T00:17:11.251Z,58.98
2023-04-07T00:19:42.490Z,58.92
2023-04-07T00:22:10.687Z,58.93
2023-04-07T00:24:42.965Z,58.82
2023-04-07T00:27:11.825Z,59.07
2023-04-07T00:29:39.954Z,59.22
2023-04-07T00:32:09.080Z,59.10
2023-04-07T00:34:37.208Z,59.06
2023-04-07T00:37:08.654Z,58.86
2023-04-07T00:39:37.180Z,58.26
2023-04-07T00:42:08.266Z,57.79
2023-04-07T00:44:36.528Z,57.65
2023-04-07T00:47:05.324Z,57.52
2023-04-07T00:49:33.807Z,57.26
2023-04-07T00:52:01.835Z,57.30
2023-04-07T00:54:30.442Z,57.17
2023-04-07T00:56:58.987Z,56.98
2023-04-07T00:59:27.315Z,56.88
2023-04-07T01:02:13.313Z,56.77
2023-04-07T01:04:47.996Z,56.58
2023-04-07T01:07:23.786Z,56.53
2023-04-07T01:10:04.016Z,56.57
2023-04-07T01:12:53.175Z,56.72
2023-04-07T01:15:23.238Z,56.86
2023-04-07T01:18:01.543Z,56.71
2023-04-07T01:20:30.492Z,56.69
2023-04-07T01:23:04.356Z,56.84
2023-04-07T01:25:53.414Z,56.71
2023-04-07T01:28:42.265Z,56.54
2023-04-07T01:31:10.877Z,56.56
2023-04-07T01:33:39.150Z,56.71
2023-04-07T01:36:08.533Z,56.97
2023-04-07T01:38:37.659Z,56.87
2023-04-07T01:41:06.067Z,56.62
2023-04-07T01:43:34.974Z,56.59
2023-04-07T01:46:03.314Z,56.66
2023-04-07T01:48:32.384Z,56.49
2023-04-07T01:51:00.845Z,56.44
2023-04-07T01:53:29.435Z,56.37
2023-04-07T01:55:57.881Z,56.33
2023-04-07T01:58:26.908Z,56.24
2023-04-07T02:00:55.418Z,56.42
2023-04-07T02:03:32.090Z,56.50
2023-04-07T02:06:03.139Z,56.43
2023-04-07T02:08:32.260Z,56.32
2023-04-07T02:11:01.211Z,56.52
2023-04-07T02:13:32.191Z,56.80
2023-04-07T02:16:01.684Z,56.66
2023-04-07T02:18:33.982Z,56.76
2023-04-07T02:21:02.409Z,56.88
2023-04-07T02:23:30.664Z,57.07
2023-04-07T02:25:59.038Z,57.31
2023-04-07T02:28:27.214Z,57.22
2023-04-07T02:30:55.629Z,57.05
2023-04-07T02:33:25.582Z,56.96
2023-04-07T02:35:53.814Z,57.28
2023-04-07T02:38:23.337Z,57.10
2023-04-07T02:40:51.547Z,57.16
2023-04-07T02:43:21.026Z,57.25
2023-04-07T02:45:49.119Z,57.23
2023-04-07T02:48:18.139Z,56.97
2023-04-07T02:50:46.301Z,56.94
2023-04-07T02:53:19.704Z,57.11
2023-04-07T02:55:47.662Z,57.21
2023-04-07T02:58:15.696Z,57.19
2023-04-07T03:00:45.478Z,57.12
2023-04-07T03:03:23.802Z,57.30
2023-04-07T03:06:00.144Z,57.56
2023-04-07T03:08:28.421Z,57.72
2023-04-07T03:10:58.621Z,57.72
2023-04-07T03:13:30.981Z,57.59
2023-04-07T03:16:06.901Z,57.39
2023-04-07T03:18:45.617Z,57.22
2023-04-07T03:21:14.152Z,56.86
2023-04-07T03:23:42.867Z,56.67
2023-04-07T03:26:11.348Z,56.72
2023-04-07T03:28:39.909Z,56.88
2023-04-07T03:31:09.315Z,57.15
2023-04-07T03:33:37.657Z,57.23
2023-04-07T03:36:06.342Z,57.31
2023-04-07T03:38:36.165Z,57.42
2023-04-07T03:41:05.521Z,57.73
2023-04-07T03:43:36.249Z,57.91
2023-04-07T03:46:04.862Z,57.97
2023-04-07T03:48:34.068Z,58.05
2023-04-07T03:51:06.406Z,58.13
2023-04-07T03:53:35.853Z,58.26
2023-04-07T03:56:14.534Z,58.34
2023-04-07T03:58:50.984Z,58.27
2023-04-07T04:01:31.981Z,58.12
2023-04-07T04:04:06.212Z,58.15
2023-04-07T04:06:37.145Z,58.10
2023-04-07T04:09:22.752Z,58.16
2023-04-07T04:11:51.225Z,58.06
2023-04-07T04:14:22.095Z,58.16
2023-04-07T04:16:55.499Z,58.14
2023-04-07T04:19:33.282Z,58.10
2023-04-07T04:22:04.277Z,58.09
2023-04-07T04:24:36.142Z,57.99
2023-04-07T04:27:05.458Z,58.06
2023-04-07T04:29:33.877Z,58.17
2023-04-07T04:32:02.959Z,58.18
2023-04-07T04:34:36.714Z,58.37
2023-04-07T04:37:06.610Z,58.58
2023-04-07T04:39:34.900Z,58.65
2023-04-07T04:42:05.844Z,58.60
2023-04-07T04:44:36.892Z,58.49
2023-04-07T04:47:14.713Z,58.48
2023-04-07T04:49:42.889Z,58.36
2023-04-07T04:52:11.209Z,58.20
2023-04-07T04:54:43.253Z,58.11
2023-04-07T04:57:12.323Z,57.99
2023-04-07T04:59:42.631Z,57.70
2023-04-07T05:02:12.608Z,57.83
2023-04-07T05:04:41.712Z,57.93
2023-04-07T05:07:20.592Z,57.98
2023-04-07T05:09:50.695Z,57.97
2023-04-07T05:12:19.137Z,57.99
2023-04-07T05:14:50.777Z,58.40
2023-04-07T05:17:21.201Z,58.59
2023-04-07T05:19:49.570Z,58.66
2023-04-07T05:22:28.749Z,58.29
2023-04-07T05:24:57.669Z,58.24
2023-04-07T05:27:26.061Z,58.13
2023-04-07T05:29:55.756Z,58.03
2023-04-07T05:32:28.415Z,57.58
2023-04-07T05:34:57.572Z,57.26
2023-04-07T05:37:32.199Z,57.17
2023-04-07T05:40:02.463Z,57.35
2023-04-07T05:42:31.405Z,57.47
2023-04-07T05:45:00.037Z,57.55
2023-04-07T05:47:28.818Z,57.57
2023-04-07T05:49:57.917Z,57.36
2023-04-07T05:52:26.984Z,57.01
2023-04-07T05:55:06.463Z,57.05
2023-04-07T05:57:36.630Z,56.99
2023-04-07T06:00:05.714Z,56.89
2023-04-07T06:02:46.456Z,56.88
2023-04-07T06:05:23.433Z,56.95
2023-04-07T06:07:55.603Z,56.56
2023-04-07T06:10:24.335Z,56.41
2023-04-07T06:12:52.721Z,56.21
2023-04-07T06:15:21.009Z,55.91
2023-04-07T06:17:51.003Z,55.68
2023-04-07T06:20:21.944Z,55.46
2023-04-07T06:22:55.084Z,54.89
2023-04-07T06:25:23.999Z,54.93
2023-04-07T06:27:54.341Z,54.88
2023-04-07T06:30:25.054Z,54.82
2023-04-07T06:32:54.107Z,55.11
2023-04-07T06:35:22.368Z,55.19
2023-04-07T06:37:54.581Z,55.05
2023-04-07T06:40:23.772Z,54.96
2023-04-07T06:42:52.385Z,55.06
2023-04-07T06:45:42.965Z,55.23
2023-04-07T06:48:11.193Z,55.05
2023-04-07T06:50:40.953Z,54.88
2023-04-07T06:53:09.295Z,54.68
2023-04-07T06:55:37.546Z,54.43
2023-04-07T06:58:05.979Z,54.59
2023-04-07T07:00:36.083Z,54.54
2023-04-07T07:03:08.826Z,54.55
2023-04-07T07:05:37.531Z,54.38
2023-04-07T07:08:06.057Z,54.41
2023-04-07T07:10:34.242Z,54.20
2023-04-07T07:13:02.505Z,54.29
2023-04-07T07:15:31.169Z,54.33
2023-04-07T07:17:59.407Z,54.49
2023-04-07T07:20:27.857Z,54.43
2023-04-07T07:22:56.817Z,54.41
2023-04-07T07:25:26.969Z,54.15
2023-04-07T07:27:55.147Z,53.96
2023-04-07T07:30:24.725Z,53.90
2023-04-07T07:32:55.101Z,53.59
2023-04-07T07:35:25.453Z,53.24
2023-04-07T07:37:55.393Z,53.21
2023-04-07T07:40:23.786Z,53.26
2023-04-07T07:42:52.823Z,52.83
2023-04-07T07:45:20.957Z,52.95
2023-04-07T07:47:49.085Z,52.74
2023-04-07T07:50:17.715Z,53.00
2023-04-07T07:52:46.322Z,53.06
2023-04-07T07:55:17.033Z,52.80
2023-04-07T07:57:45.924Z,52.61
2023-04-07T08:00:14.199Z,52.49
2023-04-07T08:02:44.872Z,52.18
2023-04-07T08:05:13.250Z,52.33
2023-04-07T08:07:43.248Z,52.55
2023-04-07T08:10:11.404Z,52.30
2023-04-07T08:12:48.070Z,52.04
2023-04-07T08:15:16.851Z,52.07
2023-04-07T08:17:45.346Z,51.98
2023-04-07T08:20:13.532Z,52.23
2023-04-07T08:22:43.906Z,52.18
2023-04-07T08:25:11.976Z,52.07
2023-04-07T08:27:42.519Z,51.99
2023-04-07T08:30:13.288Z,52.30
2023-04-07T08:32:46.645Z,52.22
2023-04-07T08:35:14.686Z,52.19
2023-04-07T08:37:44.378Z,52.08
2023-04-07T08:40:13.034Z,51.59
2023-04-07T08:42:43.225Z,51.56
2023-04-07T08:45:11.452Z,51.59
2023-04-07T08:47:40.527Z,51.52
2023-04-07T08:50:10.261Z,51.23
2023-04-07T08:52:46.251Z,51.45
2023-04-07T08:55:14.394Z,51.20
2023-04-07T08:57:44.141Z,51.03
2023-04-07T09:00:13.157Z,50.73
2023-04-07T09:02:47.975Z,50.21
2023-04-07T09:05:16.362Z,50.25
2023-04-07T09:07:44.983Z,50.30
2023-04-07T09:10:13.764Z,50.12
2023-04-07T09:12:43.048Z,49.72
2023-04-07T09:15:11.205Z,49.79
2023-04-07T09:17:45.364Z,49.78
2023-04-07T09:20:14.295Z,49.69
2023-04-07T09:22:43.790Z,49.40
2023-04-07T09:25:17.789Z,49.62
2023-04-07T09:27:59.436Z,49.92
2023-04-07T09:30:29.171Z,49.90
2023-04-07T09:32:58.769Z,49.82
2023-04-07T09:35:28.606Z,49.46
2023-04-07T09:38:09.908Z,48.72
2023-04-07T09:40:38.619Z,48.28
2023-04-07T09:43:07.786Z,48.26
2023-04-07T09:45:37.514Z,48.51
2023-04-07T09:48:08.920Z,48.79
2023-04-07T09:50:42.233Z,48.79
2023-04-07T09:53:11.142Z,48.42
2023-04-07T09:55:40.016Z,48.29
2023-04-07T09:58:08.635Z,48.21
2023-04-07T10:00:37.432Z,48.48
2023-04-07T10:03:06.104Z,48.45
2023-04-07T10:05:36.759Z,48.22
2023-04-07T10:08:06.880Z,47.97
2023-04-07T10:10:36.554Z,48.28
2023-04-07T10:13:31.631Z,48.12
2023-04-07T10:16:03.025Z,47.63
2023-04-07T10:18:32.954Z,47.23
2023-04-07T10:21:03.435Z,47.27
2023-04-07T10:23:50.639Z,47.41
2023-04-07T10:26:20.083Z,46.69
2023-04-07T10:28:50.159Z,46.35
2023-04-07T10:31:20.535Z,45.86
2023-04-07T10:33:54.067Z,45.35
2023-04-07T10:36:22.409Z,45.53
2023-04-07T10:39:08.578Z,45.70
2023-04-07T10:41:38.207Z,45.19
2023-04-07T10:44:07.025Z,45.01
2023-04-07T10:46:52.005Z,45.32
2023-04-07T11:01:27.004Z,45.30
2023-04-07T11:03:55.596Z,44.85
2023-04-07T11:06:22.432Z,44.82
2023-04-07T11:08:51.909Z,44.42
2023-04-07T11:11:34.809Z,44.43
2023-04-07T11:14:01.861Z,43.83
2023-04-07T11:16:55.826Z,43.24
2023-04-07T11:19:23.229Z,43.07
2023-04-07T11:21:51.073Z,43.29
2023-04-07T11:24:39.516Z,42.55
2023-04-07T11:27:11.863Z,42.42
2023-04-07T11:29:39.332Z,42.33
2023-04-07T11:32:06.812Z,41.85
2023-04-07T11:34:36.623Z,41.68
2023-04-07T11:37:28.235Z,42.09
2023-04-07T11:39:56.022Z,41.99
2023-04-07T11:42:32.702Z,40.82
2023-04-07T11:44:59.990Z,40.97
2023-04-07T11:47:37.568Z,41.06
2023-04-07T11:50:05.212Z,40.59
2023-04-07T11:52:46.523Z,40.54
2023-04-07T11:55:26.506Z,40.45
2023-04-07T11:57:53.284Z,40.47
2023-04-07T12:00:20.534Z,40.51
2023-04-07T12:02:47.860Z,39.87
2023-04-07T12:05:16.646Z,39.27
2023-04-07T12:07:52.422Z,39.04
2023-04-07T12:10:23.159Z,38.42
2023-04-07T12:12:55.240Z,38.53
2023-04-07T12:15:25.361Z,37.49
2023-04-07T12:17:52.796Z,37.36
2023-04-07T12:20:26.787Z,37.40
2023-04-07T12:22:53.719Z,37.79
2023-04-07T12:25:20.564Z,37.77
2023-04-07T12:27:51.773Z,37.39
2023-04-07T12:30:19.287Z,36.89
2023-04-07T12:32:47.067Z,35.57
2023-04-07T12:35:17.568Z,35.05
2023-04-07T12:37:46.162Z,33.86
2023-04-07T12:40:15.327Z,33.21
2023-04-07T12:42:41.998Z,33.06
2023-04-07T12:45:08.898Z,33.48
2023-04-07T12:47:36.551Z,33.61
2023-04-07T12:50:03.677Z,34.24
2023-04-07T12:52:36.273Z,34.44
2023-04-07T12:55:03.235Z,33.79
2023-04-07T12:57:30.591Z,33.49
2023-04-07T12:59:57.380Z,33.81
2023-04-07T13:02:25.198Z,33.51
2023-04-07T13:04:52.405Z,33.83
2023-04-07T13:07:19.316Z,34.76
2023-04-07T13:09:46.019Z,34.91
2023-04-07T13:12:13.334Z,35.69
2023-04-07T13:15:00.767Z,36.02
2023-04-07T13:17:29.228Z,35.69
2023-04-07T13:19:56.020Z,34.74
2023-04-07T13:22:24.611Z,34.52
2023-04-07T13:24:51.715Z,34.90
2023-04-07T13:27:18.501Z,34.54
2023-04-07T13:29:45.257Z,32.94
2023-04-07T13:32:14.797Z,32.16
2023-04-07T13:34:41.712Z,30.23
2023-04-07T13:37:08.410Z,28.51
2023-04-07T13:39:36.473Z,26.45
2023-04-07T13:42:04.090Z,24.82
2023-04-07T13:44:33.215Z,23.41
2023-04-07T13:47:00.324Z,21.27
2023-04-07T13:49:28.513Z,20.16
2023-04-07T13:51:55.363Z,19.65
2023-04-07T13:54:22.231Z,18.35
2023-04-07T13:56:50.117Z,18.35
2023-04-07T13:59:16.887Z,18.73
2023-04-07T14:01:43.891Z,19.02
2023-04-07T14:04:11.725Z,19.11
2023-04-07T14:06:38.577Z,18.49
2023-04-07T14:09:06.059Z,18.25
2023-04-07T14:11:34.761Z,17.90
2023-04-07T14:14:12.322Z,17.48
2023-04-07T14:16:40.158Z,17.23
2023-04-07T14:19:07.054Z,16.92
2023-04-07T14:21:36.863Z,16.87
2023-04-07T14:24:03.984Z,16.35
2023-04-07T14:26:30.669Z,15.99
2023-04-07T14:28:57.623Z,15.75
2023-04-07T14:31:24.297Z,15.62
2023-04-07T14:33:51.336Z,15.47
2023-04-07T14:36:18.489Z,15.10
2023-04-07T14:38:45.406Z,15.12
2023-04-07T14:41:12.523Z,15.40
2023-04-07T14:43:39.255Z,16.04
2023-04-07T14:46:06.543Z,16.78
2023-04-07T14:48:34.885Z,17.16
2023-04-07T14:51:09.287Z,17.34
2023-04-07T14:53:37.275Z,17.12
2023-04-07T14:56:07.160Z,17.04
2023-04-07T14:58:39.961Z,17.43
2023-04-07T15:01:06.944Z,17.58
2023-04-07T15:03:35.175Z,17.64
2023-04-07T15:06:06.093Z,17.53
2023-04-07T15:08:32.786Z,17.39
2023-04-07T15:10:59.737Z,17.52
2023-04-07T15:13:27.089Z,17.60
2023-04-07T15:15:53.798Z,17.55
2023-04-07T15:18:21.184Z,17.57
2023-04-07T15:20:48.765Z,17.73
2023-04-07T15:23:18.758Z,17.98
2023-04-07T15:25:46.958Z,18.12
2023-04-07T15:28:14.090Z,18.29
2023-04-07T15:30:42.356Z,18.44
2023-04-07T15:33:09.408Z,18.98
2023-04-07T15:35:36.250Z,18.70
2023-04-07T15:38:03.122Z,18.59
2023-04-07T15:40:29.743Z,18.53
2023-04-07T15:42:56.500Z,18.76
2023-04-07T15:45:23.261Z,19.33
2023-04-07T15:47:52.128Z,19.91
2023-04-07T15:50:19.328Z,20.41
2023-04-07T15:52:46.300Z,21.03
2023-04-07T15:55:13.080Z,21.72
2023-04-07T15:57:40.390Z,22.80
2023-04-07T16:00:07.893Z,23.66
2023-04-07T16:02:37.584Z,24.75
2023-04-07T16:05:04.940Z,25.93
2023-04-07T16:07:31.699Z,26.92
2023-04-07T16:09:58.434Z,27.48
2023-04-07T16:12:25.293Z,28.06
2023-04-07T16:14:51.968Z,28.56
2023-04-07T16:17:20.576Z,29.00
2023-04-07T16:19:48.498Z,29.61
2023-04-07T16:22:15.127Z,30.16
2023-04-07T16:24:42.420Z,30.78
2023-04-07T16:27:09.251Z,31.33
2023-04-07T16:29:36.273Z,32.29
2023-04-07T16:32:03.909Z,33.14
2023-04-07T16:34:30.812Z,33.62
2023-04-07T16:37:01.135Z,34.22
2023-04-07T16:39:29.555Z,34.75
2023-04-07T16:41:56.632Z,35.35
2023-04-07T16:44:28.788Z,35.57
2023-04-07T16:46:55.550Z,35.83
2023-04-07T16:49:23.298Z,36.13
2023-04-07T16:51:50.216Z,36.72
2023-04-07T16:54:16.931Z,36.80
2023-04-07T16:56:43.682Z,36.98
2023-04-07T16:59:10.776Z,37.82
2023-04-07T17:01:42.445Z,38.12
2023-04-07T17:04:10.261Z,38.22
2023-04-07T17:06:37.048Z,38.09
2023-04-07T17:09:03.682Z,38.38
2023-04-07T17:11:30.367Z,38.77
2023-04-07T17:13:57.784Z,39.00
2023-04-07T17:16:25.025Z,39.68
2023-04-07T17:18:52.020Z,40.07
2023-04-07T17:21:18.782Z,40.33
2023-04-07T17:23:48.933Z,40.56
2023-04-07T17:26:16.088Z,40.98
2023-04-07T17:28:45.044Z,41.92
2023-04-07T17:31:13.909Z,42.86
2023-04-07T17:33:41.540Z,43.40
2023-04-07T17:36:08.340Z,44.12
2023-04-07T17:38:35.791Z,43.99
2023-04-07T17:41:02.671Z,44.13
2023-04-07T17:43:33.274Z,44.52
2023-04-07T17:45:59.991Z,44.91
2023-04-07T17:48:27.079Z,45.25
2023-04-07T17:50:53.696Z,45.37
2023-04-07T17:53:20.643Z,45.86
2023-04-07T17:55:51.464Z,46.35
2023-04-07T17:58:22.546Z,46.30
2023-04-07T18:00:50.133Z,45.77
2023-04-07T18:03:18.812Z,45.99
2023-04-07T18:05:46.301Z,46.41
2023-04-07T18:08:12.943Z,46.83
2023-04-07T18:10:39.812Z,47.02
2023-04-07T18:13:07.282Z,46.83
2023-04-07T18:15:34.405Z,46.59
2023-04-07T18:18:01.882Z,47.03
2023-04-07T18:20:30.964Z,47.59
2023-04-07T18:22:57.964Z,47.52
2023-04-07T18:25:25.124Z,46.99
2023-04-07T18:27:52.753Z,46.71
2023-04-07T18:30:19.669Z,46.67
2023-04-07T18:32:46.749Z,46.58
2023-04-07T18:35:13.552Z,46.78
2023-04-07T18:37:43.656Z,46.90
2023-04-07T18:40:11.802Z,46.85
2023-04-07T18:42:40.162Z,47.11
2023-04-07T18:45:08.210Z,47.12
2023-04-07T18:47:35.065Z,47.13
2023-04-07T18:50:02.784Z,47.06
2023-04-07T18:52:29.756Z,47.12
2023-04-07T18:54:57.559Z,47.28
2023-04-07T18:57:24.294Z,47.88
2023-04-07T18:59:52.288Z,48.42
2023-04-07T19:02:19.155Z,48.63
2023-04-07T19:04:46.129Z,48.63
2023-04-07T19:07:13.104Z,48.74
2023-04-07T19:09:41.836Z,48.85
2023-04-07T19:12:08.922Z,49.04
2023-04-07T19:14:35.730Z,48.88
2023-04-07T19:17:04.092Z,48.42
2023-04-07T19:19:31.699Z,48.30
2023-04-07T19:22:01.958Z,48.16
2023-04-07T19:24:29.033Z,48.10
2023-04-07T19:26:56.299Z,48.28
2023-04-07T19:29:23.149Z,48.31
2023-04-07T19:31:52.296Z,48.31
2023-04-07T19:34:19.409Z,48.44
2023-04-07T19:36:46.182Z,48.68
2023-04-07T19:39:13.098Z,48.96
2023-04-07T19:41:41.339Z,49.15
2023-04-07T19:44:08.100Z,49.26
2023-04-07T19:46:35.980Z,49.35
2023-04-07T19:49:03.642Z,49.47
2023-04-07T19:51:31.179Z,49.53
2023-04-07T19:53:57.945Z,49.57
2023-04-07T19:56:24.715Z,49.69
2023-04-07T19:58:51.628Z,50.01
2023-04-07T20:01:18.568Z,50.43
2023-04-07T20:03:46.121Z,50.77
2023-04-07T20:06:14.323Z,50.98
2023-04-07T20:08:42.990Z,50.96
2023-04-07T20:11:12.097Z,51.07
2023-04-07T20:13:42.535Z,51.24
2023-04-07T20:16:09.555Z,51.33
2023-04-07T20:18:36.714Z,51.59
2023-04-07T20:21:09.196Z,51.70
2023-04-07T20:23:35.984Z,51.60
2023-04-07T20:26:02.983Z,51.58
2023-04-07T20:28:30.458Z,51.76
2023-04-07T20:30:57.420Z,51.86
2023-04-07T20:33:24.334Z,51.82
2023-04-07T20:35:51.932Z,52.14
2023-04-07T20:38:19.562Z,52.37
2023-04-07T20:40:46.660Z,52.31
2023-04-07T20:43:14.565Z,52.45
2023-04-07T20:45:41.778Z,52.85
2023-04-07T20:48:08.748Z,53.03
2023-04-07T20:50:35.980Z,52.98
2023-04-07T20:53:06.401Z,52.97
2023-04-07T20:55:33.987Z,52.90
2023-04-07T20:58:00.762Z,52.93
2023-04-07T21:00:28.628Z,52.90
2023-04-07T21:02:56.755Z,53.16
2023-04-07T21:05:23.775Z,53.38
2023-04-07T21:07:50.508Z,53.62
2023-04-07T21:10:17.470Z,53.82
2023-04-07T21:12:44.234Z,53.88
2023-04-07T21:15:17.284Z,54.12
2023-04-07T21:17:45.480Z,54.45
2023-04-07T21:20:12.331Z,54.59
2023-04-07T21:22:42.308Z,54.90
2023-04-07T21:25:09.268Z,55.11
2023-04-07T21:27:37.620Z,55.14
2023-04-07T21:30:05.934Z,55.19
2023-04-07T21:32:33.284Z,55.24
2023-04-07T21:35:00.247Z,55.22
2023-04-07T21:37:27.244Z,55.35
2023-04-07T21:39:54.105Z,55.50
2023-04-07T21:42:21.900Z,55.49
2023-04-07T21:44:48.734Z,55.59
2023-04-07T21:47:16.990Z,55.68
2023-04-07T21:49:43.683Z,55.82
2023-04-07T21:52:10.786Z,55.85
2023-04-07T21:54:38.916Z,55.94
2023-04-07T21:57:07.884Z,56.21
2023-04-07T21:59:36.550Z,56.30
2023-04-07T22:02:03.951Z,56.28
2023-04-07T22:04:31.379Z,56.39
2023-04-07T22:06:58.577Z,56.46
2023-04-07T22:09:26.554Z,56.40
2023-04-07T22:11:59.995Z,56.45
2023-04-07T22:14:26.767Z,56.55
2023-04-07T22:16:53.526Z,56.62
2023-04-07T22:19:27.746Z,56.64
2023-04-07T22:21:54.903Z,56.81
2023-04-07T22:24:21.814Z,56.93
2023-04-07T22:26:53.369Z,57.20
2023-04-07T22:29:20.812Z,57.33
2023-04-07T22:31:47.984Z,57.21
2023-04-07T22:34:15.780Z,57.30
2023-04-07T22:36:42.547Z,57.27
2023-04-07T22:39:09.499Z,57.22
2023-04-07T22:41:36.854Z,57.06
2023-04-07T22:44:07.939Z,56.86
2023-04-07T22:46:35.280Z,56.72
2023-04-07T22:49:02.288Z,56.78
2023-04-07T22:51:29.517Z,56.91
2023-04-07T22:53:56.587Z,57.06
2023-04-07T22:56:27.635Z,57.14
2023-04-07T22:58:54.624Z,57.31
2023-04-07T23:01:21.558Z,57.40
2023-04-07T23:03:48.872Z,57.49
2023-04-07T23:08:48.830Z,57.77
2023-04-07T23:11:17.112Z,57.54
2023-04-07T23:13:45.758Z,57.34
2023-04-07T23:16:14.961Z,57.29
2023-04-07T23:18:43.829Z,57.50
2023-04-07T23:21:12.087Z,57.63
2023-04-07T23:23:40.689Z,57.89
2023-04-07T23:26:08.644Z,58.06
2023-04-07T23:28:36.827Z,57.74
2023-04-07T23:31:06.702Z,57.73
2023-04-07T23:33:35.246Z,57.44
2023-04-07T23:36:28.999Z,57.18
2023-04-07T23:38:57.123Z,56.91
2023-04-07T23:41:25.603Z,57.02
2023-04-07T23:43:53.740Z,57.26
2023-04-07T23:46:21.926Z,57.41
2023-04-07T23:48:51.073Z,57.30
2023-04-07T23:51:19.771Z,57.47
2023-04-07T23:53:47.796Z,57.71
2023-04-07T23:56:16.275Z,57.44
2023-04-07T23:58:44.380Z,57.13
